Time;durP1;ratioP1;P1;durP2;ratioP2;P2;SDS_P1;SDS_P2;PMS_P1;PMS_P2;Temp;Humidity;BMP_temperature;BMP_pressure;BME280_temperature;BME280_humidity;BME280_pressure;Samples;Min_cycle;Max_cycle;Signal;HPM_P1;HPM_P2
2021/12/23 00:02:08;;;;;;;19.03;11.07;;;0.10;99.90;;;;;;5075360;28;20189;-78
2021/12/23 00:04:33;;;;;;;17.97;11.37;;;0.10;99.90;;;;;;5056726;28;20238;-78
2021/12/23 00:06:59;;;;;;;16.37;11.53;;;0.00;99.90;;;;;;5056867;28;20197;-78
2021/12/23 00:09:36;;;;;;;15.63;10.90;;;0.10;99.90;;;;;;5056795;28;20244;-78
2021/12/23 00:12:01;;;;;;;18.17;11.10;;;0.00;99.90;;;;;;5074943;28;20153;-78
2021/12/23 00:14:27;;;;;;;16.83;11.63;;;0.00;99.90;;;;;;5075086;28;20586;-78
2021/12/23 00:17:20;;;;;;;18.47;12.13;;;0.00;99.90;;;;;;5074306;28;20223;-78
2021/12/23 00:19:57;;;;;;;18.30;11.83;;;0.00;99.90;;;;;;5074515;28;20247;-78
2021/12/23 00:25:07;;;;;;;16.67;11.97;;;0.10;99.90;;;;;;5075216;28;20578;-78
2021/12/23 00:27:33;;;;;;;17.40;12.67;;;0.10;99.90;;;;;;5056616;28;20181;-78
2021/12/23 00:29:58;;;;;;;17.20;12.13;;;0.10;99.90;;;;;;5056817;28;20209;-78
2021/12/23 00:32:24;;;;;;;16.33;11.03;;;0.10;99.90;;;;;;5074983;28;20178;-78
2021/12/23 00:34:49;;;;;;;17.10;12.00;;;0.10;99.90;;;;;;5075074;28;20308;-78
2021/12/23 00:37:17;;;;;;;17.73;11.63;;;0.10;99.90;;;;;;5075102;28;20178;-78
2021/12/23 00:39:44;;;;;;;17.00;11.87;;;0.10;99.90;;;;;;5074863;28;20179;-78
2021/12/23 00:42:11;;;;;;;18.20;12.40;;;0.10;99.90;;;;;;5074705;28;20178;-78
2021/12/23 00:44:45;;;;;;;19.37;12.00;;;0.20;99.90;;;;;;5074476;28;20673;-78
2021/12/23 00:47:11;;;;;;;17.30;11.43;;;0.20;99.90;;;;;;5056645;28;20552;-78
2021/12/23 00:49:38;;;;;;;17.30;11.67;;;0.20;99.90;;;;;;5074705;28;20213;-78
2021/12/23 00:52:05;;;;;;;14.87;11.17;;;0.20;99.90;;;;;;5074413;28;20262;-78
2021/12/23 00:54:31;;;;;;;16.40;11.53;;;0.20;99.90;;;;;;5056356;28;20186;-78
2021/12/23 00:56:57;;;;;;;17.77;11.73;;;0.20;99.90;;;;;;5075166;28;20222;-78
2021/12/23 00:59:22;;;;;;;17.93;11.70;;;0.20;99.90;;;;;;5075114;28;20182;-78
2021/12/23 01:01:48;;;;;;;19.07;11.73;;;0.20;99.90;;;;;;5075490;28;20240;-78
2021/12/23 01:04:14;;;;;;;16.47;11.63;;;0.20;99.90;;;;;;5075243;28;20224;-78
2021/12/23 01:06:40;;;;;;;17.93;11.77;;;0.20;99.90;;;;;;5075301;28;20218;-78
2021/12/23 01:09:06;;;;;;;19.50;11.80;;;0.20;99.90;;;;;;5062306;28;20728;-78
2021/12/23 01:11:31;;;;;;;15.10;10.80;;;0.20;99.90;;;;;;5076423;28;20206;-78
2021/12/23 01:14:25;;;;;;;16.87;11.77;;;0.20;99.90;;;;;;5075358;28;20639;-78
2021/12/23 01:17:10;;;;;;;19.80;12.37;;;0.20;99.90;;;;;;5074172;28;20211;-78
2021/12/23 01:19:39;;;;;;;17.67;11.50;;;0.20;99.90;;;;;;5074273;28;20555;-78
2021/12/23 01:22:06;;;;;;;16.83;12.43;;;0.20;99.90;;;;;;5057143;28;20227;-78
2021/12/23 01:24:33;;;;;;;17.67;12.27;;;0.20;99.90;;;;;;5074249;28;20206;-78
2021/12/23 01:27:00;;;;;;;17.83;11.80;;;0.20;99.90;;;;;;5074364;28;20174;-78
2021/12/23 01:29:25;;;;;;;17.73;12.37;;;0.20;99.90;;;;;;5059057;28;20220;-78
2021/12/23 01:31:51;;;;;;;20.17;12.67;;;0.20;99.90;;;;;;5078612;28;20210;-78
2021/12/23 01:34:16;;;;;;;19.77;12.47;;;0.30;99.90;;;;;;5079592;28;20179;-77
2021/12/23 01:36:42;;;;;;;16.83;12.30;;;0.30;99.90;;;;;;5078589;28;20204;-78
2021/12/23 01:39:07;;;;;;;16.73;11.77;;;0.30;99.90;;;;;;5060070;28;20185;-78
2021/12/23 01:41:33;;;;;;;18.37;12.30;;;0.40;99.90;;;;;;5078861;28;20190;-78
2021/12/23 01:43:59;;;;;;;15.73;11.40;;;0.40;99.90;;;;;;5060392;28;20225;-78
2021/12/23 01:46:25;;;;;;;20.43;13.13;;;0.30;99.90;;;;;;5060120;28;20704;-78
2021/12/23 01:48:52;;;;;;;17.13;12.40;;;0.30;99.90;;;;;;5078432;28;20233;-78
2021/12/23 01:51:17;;;;;;;18.07;13.00;;;0.40;99.90;;;;;;5060325;28;20214;-78
2021/12/23 01:53:43;;;;;;;18.97;12.73;;;0.30;99.90;;;;;;5060097;28;20331;-78
2021/12/23 01:56:08;;;;;;;18.53;12.53;;;0.40;99.90;;;;;;5078816;28;20206;-78
2021/12/23 01:58:39;;;;;;;18.03;12.83;;;0.30;99.90;;;;;;5060619;28;20534;-78
2021/12/23 02:01:06;;;;;;;17.07;12.50;;;0.30;99.90;;;;;;5078483;28;20175;-78
2021/12/23 02:03:32;;;;;;;20.47;13.20;;;0.30;99.90;;;;;;5078577;28;20185;-78
2021/12/23 02:05:57;;;;;;;21.13;13.03;;;0.30;99.90;;;;;;5078537;28;20221;-78
2021/12/23 02:08:23;;;;;;;20.17;12.40;;;0.30;99.90;;;;;;5079176;28;20181;-78
2021/12/23 02:10:49;;;;;;;20.87;14.03;;;0.30;99.90;;;;;;5061393;28;20213;-78
2021/12/23 02:13:15;;;;;;;18.00;12.27;;;0.30;99.90;;;;;;5061070;28;20247;-78
2021/12/23 02:15:41;;;;;;;19.40;12.77;;;0.30;99.90;;;;;;5079212;28;20207;-78
2021/12/23 02:18:06;;;;;;;19.17;13.33;;;0.30;99.90;;;;;;5081372;28;20178;-79
2021/12/23 02:20:34;;;;;;;20.20;12.93;;;0.30;99.90;;;;;;5082080;28;20699;-78
2021/12/23 02:23:00;;;;;;;18.77;13.00;;;0.30;99.90;;;;;;5085308;28;20197;-78
2021/12/23 02:25:26;;;;;;;21.17;13.63;;;0.30;99.90;;;;;;5085627;28;20241;-78
2021/12/23 02:27:54;;;;;;;18.37;12.03;;;0.30;99.90;;;;;;5070539;28;20680;-78
2021/12/23 02:30:24;;;;;;;19.30;12.47;;;0.30;99.90;;;;;;5070195;28;20221;-78
2021/12/23 02:32:51;;;;;;;22.67;13.60;;;0.30;99.90;;;;;;5078107;28;20634;-78
2021/12/23 02:35:18;;;;;;;19.60;13.53;;;0.30;99.90;;;;;;5077398;28;20233;-78
2021/12/23 02:37:45;;;;;;;21.40;13.83;;;0.30;99.90;;;;;;5078055;28;20515;-78
2021/12/23 02:40:12;;;;;;;21.10;13.27;;;0.30;99.90;;;;;;5058867;28;20189;-78
2021/12/23 02:42:37;;;;;;;19.27;12.87;;;0.40;99.90;;;;;;5077697;28;20641;-78
2021/12/23 02:45:09;;;;;;;20.07;13.63;;;0.40;99.90;;;;;;5059594;28;20209;-78
2021/12/23 02:47:35;;;;;;;23.90;14.10;;;0.40;99.90;;;;;;5078172;28;20163;-78
2021/12/23 02:50:00;;;;;;;20.47;13.23;;;0.50;99.90;;;;;;5078139;28;20203;-78
2021/12/23 02:52:26;;;;;;;20.27;13.20;;;0.40;99.90;;;;;;5078496;28;20237;-78
2021/12/23 02:54:57;;;;;;;24.13;14.87;;;0.50;99.90;;;;;;5078502;28;20194;-78
2021/12/23 02:57:23;;;;;;;19.70;13.67;;;0.50;99.90;;;;;;5064022;28;20341;-78
2021/12/23 02:59:49;;;;;;;22.30;13.63;;;0.50;99.90;;;;;;5078384;28;20186;-78
2021/12/23 03:02:15;;;;;;;22.37;14.63;;;0.50;99.90;;;;;;5077343;28;20186;-78
2021/12/23 03:04:40;;;;;;;19.90;14.33;;;0.50;99.90;;;;;;5059384;28;20198;-78
2021/12/23 03:07:06;;;;;;;19.33;14.13;;;0.50;99.90;;;;;;5077892;28;20577;-78
2021/12/23 03:09:31;;;;;;;21.67;14.67;;;0.50;99.90;;;;;;5059020;28;20186;-78
2021/12/23 03:11:57;;;;;;;18.27;14.13;;;0.50;99.90;;;;;;5077457;28;20540;-78
2021/12/23 03:14:22;;;;;;;20.73;13.37;;;0.50;99.90;;;;;;5059174;28;20178;-78
2021/12/23 03:16:50;;;;;;;21.27;14.03;;;0.50;99.90;;;;;;5059390;28;20202;-78
2021/12/23 03:19:15;;;;;;;21.87;14.50;;;0.50;99.90;;;;;;5077303;28;20543;-78
2021/12/23 03:21:44;;;;;;;22.87;14.13;;;0.50;99.90;;;;;;5059449;28;20186;-78
2021/12/23 03:24:15;;;;;;;20.10;13.50;;;0.50;99.90;;;;;;5077212;28;20190;-78
2021/12/23 03:26:41;;;;;;;22.30;14.20;;;0.70;99.90;;;;;;5076943;28;20208;-78
2021/12/23 03:29:08;;;;;;;21.60;14.43;;;0.50;99.90;;;;;;5059007;28;20276;-78
2021/12/23 03:31:34;;;;;;;22.93;15.33;;;0.50;99.90;;;;;;5076865;28;20203;-78
2021/12/23 03:34:00;;;;;;;19.47;13.73;;;0.50;99.90;;;;;;5059138;28;20643;-78
2021/12/23 03:36:25;;;;;;;20.50;14.10;;;0.50;99.90;;;;;;5077208;28;20194;-78
2021/12/23 03:38:51;;;;;;;19.47;14.00;;;0.50;99.90;;;;;;5082811;28;20182;-78
2021/12/23 03:41:17;;;;;;;20.33;14.23;;;0.40;99.90;;;;;;5064525;28;20207;-78
2021/12/23 03:43:42;;;;;;;24.03;15.27;;;0.40;99.90;;;;;;5064160;28;20195;-78
2021/12/23 03:46:08;;;;;;;20.80;14.37;;;0.40;99.90;;;;;;5080930;28;20210;-78
2021/12/23 03:48:34;;;;;;;21.63;14.80;;;0.40;99.90;;;;;;5081732;28;20201;-78
2021/12/23 03:51:00;;;;;;;22.20;14.33;;;0.40;99.90;;;;;;5081275;28;20202;-78
2021/12/23 03:53:25;;;;;;;19.93;14.37;;;0.40;99.90;;;;;;5082074;28;20188;-78
2021/12/23 03:55:51;;;;;;;21.80;14.47;;;0.30;99.90;;;;;;5079297;28;20210;-78
2021/12/23 03:58:17;;;;;;;20.70;13.80;;;0.40;99.90;;;;;;5079243;28;20193;-78
2021/12/23 04:00:43;;;;;;;23.73;15.60;;;0.30;99.90;;;;;;5076778;28;20193;-78
2021/12/23 04:03:10;;;;;;;22.00;13.83;;;0.30;99.90;;;;;;5076780;28;20183;-78
2021/12/23 04:05:35;;;;;;;23.50;14.67;;;0.30;99.90;;;;;;5058261;28;20244;-78
2021/12/23 04:08:01;;;;;;;19.87;14.37;;;0.30;99.90;;;;;;5076646;28;20641;-78
2021/12/23 04:10:27;;;;;;;25.97;15.17;;;0.30;99.90;;;;;;5077179;28;20311;-78
2021/12/23 04:12:53;;;;;;;21.57;15.17;;;0.30;99.90;;;;;;5076686;28;20266;-78
2021/12/23 04:15:19;;;;;;;21.70;14.90;;;0.20;99.90;;;;;;5076967;28;20268;-78
2021/12/23 04:17:46;;;;;;;21.13;13.53;;;0.20;99.90;;;;;;5077829;28;20187;-78
2021/12/23 04:20:23;;;;;;;24.17;14.87;;;0.20;99.90;;;;;;5076325;28;20181;-78
2021/12/23 04:22:51;;;;;;;22.73;15.13;;;0.10;99.90;;;;;;5058916;28;20179;-78
2021/12/23 04:25:19;;;;;;;23.37;15.17;;;0.10;99.90;;;;;;5077400;28;20211;-78
2021/12/23 04:27:47;;;;;;;22.07;14.20;;;0.10;99.90;;;;;;5059670;28;20201;-78
2021/12/23 04:30:14;;;;;;;24.43;16.00;;;0.20;99.90;;;;;;5076286;28;20568;-78
2021/12/23 04:32:40;;;;;;;23.57;15.53;;;0.10;99.90;;;;;;5059072;28;20324;-78
2021/12/23 04:35:06;;;;;;;21.83;15.70;;;0.10;99.90;;;;;;5076945;28;20198;-78
2021/12/23 04:37:32;;;;;;;23.60;16.13;;;0.10;99.90;;;;;;5059639;28;20218;-78
2021/12/23 04:39:57;;;;;;;24.67;15.13;;;0.10;99.90;;;;;;5080925;28;20711;-78
2021/12/23 04:42:23;;;;;;;25.03;15.90;;;0.10;99.90;;;;;;5058668;28;20220;-78
2021/12/23 04:44:49;;;;;;;22.27;15.30;;;0.10;99.90;;;;;;5076569;28;20530;-78
2021/12/23 04:47:14;;;;;;;24.77;16.27;;;0.10;99.90;;;;;;5076063;28;20235;-78
2021/12/23 04:49:40;;;;;;;22.07;15.33;;;0.00;99.90;;;;;;5075221;28;20197;-78
2021/12/23 04:52:06;;;;;;;22.73;14.90;;;0.00;99.90;;;;;;5075227;28;20198;-77
2021/12/23 04:54:32;;;;;;;23.33;15.70;;;0.00;99.90;;;;;;5076363;28;20339;-78
2021/12/23 04:56:57;;;;;;;23.97;15.33;;;0.00;99.90;;;;;;5075769;28;20765;-78
2021/12/23 04:59:23;;;;;;;22.63;15.43;;;0.00;99.90;;;;;;5075613;28;20181;-78
2021/12/23 05:01:50;;;;;;;29.67;17.37;;;0.00;99.90;;;;;;5075754;28;20675;-78
2021/12/23 05:04:15;;;;;;;23.67;15.93;;;0.00;99.90;;;;;;5075859;28;20547;-78
2021/12/23 05:06:41;;;;;;;25.47;15.57;;;0.00;99.90;;;;;;5057420;28;20312;-78
2021/12/23 05:09:07;;;;;;;24.13;16.83;;;0.00;99.90;;;;;;5075745;28;20178;-78
2021/12/23 05:11:32;;;;;;;21.33;15.20;;;0.00;99.90;;;;;;5057532;28;20257;-78
2021/12/23 05:13:58;;;;;;;22.93;15.37;;;0.00;99.90;;;;;;5075633;28;20183;-78
2021/12/23 05:16:23;;;;;;;25.60;15.77;;;0.00;99.90;;;;;;5057715;28;20209;-78
2021/12/23 05:18:49;;;;;;;23.87;16.10;;;0.00;99.90;;;;;;5057630;28;20564;-78
2021/12/23 05:21:15;;;;;;;22.80;15.67;;;0.00;99.90;;;;;;5058113;28;20186;-78
2021/12/23 05:23:40;;;;;;;27.23;16.40;;;0.00;99.90;;;;;;5076233;28;20175;-78
2021/12/23 05:26:08;;;;;;;24.90;16.50;;;0.00;99.90;;;;;;5057658;28;20213;-78
2021/12/23 05:28:33;;;;;;;23.17;16.07;;;0.00;99.90;;;;;;5075949;28;20181;-78
2021/12/23 05:30:59;;;;;;;25.07;15.93;;;0.40;99.90;;;;;;5075910;28;20203;-78
2021/12/23 05:33:25;;;;;;;25.93;16.30;;;0.10;99.90;;;;;;5076566;28;20619;-78
2021/12/23 05:35:51;;;;;;;26.03;16.67;;;0.10;99.90;;;;;;5077078;28;20206;-78
2021/12/23 05:38:16;;;;;;;24.57;16.40;;;0.10;99.90;;;;;;5076482;28;20210;-78
2021/12/23 05:40:42;;;;;;;22.70;16.33;;;0.10;99.90;;;;;;5058225;28;20187;-78
2021/12/23 05:43:07;;;;;;;25.03;16.87;;;0.10;99.90;;;;;;5074394;28;20189;-78
2021/12/23 05:45:33;;;;;;;28.40;15.90;;;0.10;99.90;;;;;;5073999;28;20290;-78
2021/12/23 05:47:58;;;;;;;24.73;16.50;;;0.10;99.90;;;;;;5074238;28;20250;-78
2021/12/23 05:50:25;;;;;;;24.97;16.03;;;0.20;99.90;;;;;;5073845;28;20213;-78
2021/12/23 05:52:51;;;;;;;26.13;17.50;;;0.20;99.90;;;;;;5056444;28;20193;-78
2021/12/23 05:55:17;;;;;;;22.90;16.37;;;0.20;99.90;;;;;;5074994;28;20209;-78
2021/12/23 05:57:44;;;;;;;26.60;16.83;;;0.20;99.90;;;;;;5073906;28;20214;-78
2021/12/23 06:00:18;;;;;;;27.40;17.07;;;0.30;99.90;;;;;;5074420;28;20198;-78
2021/12/23 06:02:44;;;;;;;23.07;16.33;;;0.20;99.90;;;;;;5074667;28;20167;-77
2021/12/23 06:05:10;;;;;;;25.73;16.83;;;0.20;99.90;;;;;;5074373;28;20301;-78
2021/12/23 06:07:35;;;;;;;23.37;15.53;;;0.30;99.90;;;;;;5074395;28;20244;-78
2021/12/23 06:10:01;;;;;;;27.43;17.00;;;0.20;99.90;;;;;;5074481;28;20250;-78
2021/12/23 06:12:27;;;;;;;25.13;16.57;;;0.30;99.90;;;;;;5074721;28;20175;-78
2021/12/23 06:14:53;;;;;;;26.23;16.40;;;0.30;99.90;;;;;;5057235;28;20297;-78
2021/12/23 06:17:18;;;;;;;24.87;16.17;;;0.30;99.90;;;;;;5059787;28;20243;-78
2021/12/23 06:19:44;;;;;;;25.70;16.67;;;0.30;99.90;;;;;;5059736;28;20613;-77
2021/12/23 06:22:12;;;;;;;26.10;16.30;;;0.30;99.90;;;;;;5060066;28;20189;-78
2021/12/23 06:24:39;;;;;;;26.57;17.47;;;0.30;99.90;;;;;;5059648;28;20179;-78
2021/12/23 06:27:04;;;;;;;27.13;16.33;;;0.30;99.90;;;;;;5077731;28;20264;-78
2021/12/23 06:29:30;;;;;;;25.37;17.33;;;0.30;99.90;;;;;;5060031;28;20272;-77
2021/12/23 06:31:55;;;;;;;29.43;17.10;;;0.30;99.90;;;;;;5078295;28;20683;-78
2021/12/23 06:34:21;;;;;;;25.70;16.57;;;0.30;99.90;;;;;;5063499;28;20237;-78
2021/12/23 06:36:47;;;;;;;26.00;17.27;;;0.30;99.90;;;;;;5078134;28;20202;-79
2021/12/23 06:39:12;;;;;;;28.17;17.73;;;0.30;99.90;;;;;;5078010;28;20261;-79
2021/12/23 06:41:38;;;;;;;25.13;15.53;;;0.30;99.90;;;;;;5059579;28;20682;-79
2021/12/23 06:44:04;;;;;;;29.23;17.50;;;0.40;99.90;;;;;;5059133;28;20671;-79
2021/12/23 06:46:29;;;;;;;25.93;16.90;;;0.40;99.90;;;;;;5059602;28;20296;-78
2021/12/23 06:48:55;;;;;;;26.60;17.13;;;0.40;99.90;;;;;;5077269;28;20186;-78
2021/12/23 06:51:20;;;;;;;25.67;17.30;;;0.40;99.90;;;;;;5059005;28;20206;-78
2021/12/23 06:53:46;;;;;;;29.60;17.87;;;0.40;99.90;;;;;;5076899;28;20181;-78
2021/12/23 06:56:13;;;;;;;26.07;17.27;;;0.40;99.90;;;;;;5076775;28;20277;-78
2021/12/23 06:58:39;;;;;;;30.03;17.60;;;0.40;99.90;;;;;;5076624;28;20182;-78
2021/12/23 07:01:05;;;;;;;25.97;17.80;;;0.50;99.90;;;;;;5059132;28;20182;-78
2021/12/23 07:04:05;;;;;;;28.23;16.87;;;0.50;99.90;;;;;;5077457;28;20197;-78
2021/12/23 07:06:23;;;;;;;25.67;16.17;;;0.50;99.90;;;;;;5075645;28;20283;-78
2021/12/23 07:08:49;;;;;;;23.70;16.13;;;0.50;99.90;;;;;;5076687;28;20659;-78
2021/12/23 07:11:15;;;;;;;28.13;17.13;;;0.50;99.90;;;;;;5076211;28;20206;-79
2021/12/23 07:13:40;;;;;;;28.93;17.50;;;0.50;99.90;;;;;;5076125;28;20591;-78
2021/12/23 07:16:06;;;;;;;25.40;16.43;;;0.50;99.90;;;;;;5075591;28;20190;-78
2021/12/23 07:18:31;;;;;;;27.07;16.70;;;0.50;99.90;;;;;;5076039;28;20182;-78
2021/12/23 07:20:57;;;;;;;26.23;17.47;;;0.50;99.90;;;;;;5057887;28;20229;-79
2021/12/23 07:23:22;;;;;;;25.73;17.13;;;0.60;99.90;;;;;;5058639;28;20568;-78
2021/12/23 07:25:48;;;;;;;24.60;15.93;;;0.50;99.90;;;;;;5075022;28;20203;-78
2021/12/23 07:28:14;;;;;;;26.60;16.93;;;0.50;99.90;;;;;;5077667;28;20197;-77
2021/12/23 07:30:39;;;;;;;25.07;16.93;;;0.60;99.90;;;;;;5057223;28;20214;-78
2021/12/23 07:33:05;;;;;;;25.23;16.27;;;0.50;99.90;;;;;;5060915;28;20192;-77
2021/12/23 07:35:31;;;;;;;26.27;16.73;;;0.50;99.90;;;;;;5062049;28;20201;-78
2021/12/23 07:38:00;;;;;;;26.10;16.17;;;0.50;99.90;;;;;;5058652;28;20189;-78
2021/12/23 07:40:26;;;;;;;26.00;16.63;;;0.50;99.90;;;;;;5058307;28;20629;-78
2021/12/23 07:42:55;;;;;;;24.57;16.47;;;0.50;99.90;;;;;;5076343;28;20548;-78
2021/12/23 07:45:22;;;;;;;24.90;17.27;;;0.60;99.90;;;;;;5075413;28;20193;-78
2021/12/23 07:47:48;;;;;;;25.53;16.33;;;0.60;99.90;;;;;;5057929;28;20183;-78
2021/12/23 07:50:13;;;;;;;27.33;17.00;;;0.60;99.90;;;;;;5075242;28;20209;-78
2021/12/23 07:52:39;;;;;;;23.23;16.30;;;0.60;99.90;;;;;;5057843;28;20187;-78
2021/12/23 07:55:05;;;;;;;28.37;16.57;;;0.60;99.90;;;;;;5075845;28;20198;-78
2021/12/23 07:57:31;;;;;;;26.73;17.23;;;0.60;99.90;;;;;;5057813;28;20186;-78
2021/12/23 07:59:58;;;;;;;27.70;17.37;;;0.60;99.90;;;;;;5075300;28;20612;-78
2021/12/23 08:02:23;;;;;;;26.70;16.70;;;0.60;99.90;;;;;;5057906;28;20186;-78
2021/12/23 08:04:49;;;;;;;26.63;16.30;;;0.70;99.90;;;;;;5057866;28;20537;-78
2021/12/23 08:07:15;;;;;;;24.17;17.00;;;0.70;99.90;;;;;;5076152;28;20171;-78
2021/12/23 08:09:40;;;;;;;24.73;16.43;;;0.70;99.90;;;;;;5058156;28;20189;-78
2021/12/23 08:12:08;;;;;;;25.27;16.47;;;0.70;99.90;;;;;;5076162;28;20185;-79
2021/12/23 08:14:34;;;;;;;28.53;17.10;;;0.70;99.90;;;;;;5076006;28;20200;-78
2021/12/23 08:16:59;;;;;;;27.33;16.57;;;0.70;99.90;;;;;;5057935;28;20191;-78
2021/12/23 08:19:25;;;;;;;24.43;17.17;;;0.70;99.90;;;;;;5058377;28;20276;-79
2021/12/23 08:21:50;;;;;;;29.10;17.33;;;0.70;99.90;;;;;;5063073;28;20182;-77
2021/12/23 08:24:16;;;;;;;25.90;14.90;;;0.70;99.90;;;;;;5076349;28;20178;-78
2021/12/23 08:26:50;;;;;;;26.70;16.97;;;0.70;99.90;;;;;;5074161;28;20195;-78
2021/12/23 08:29:18;;;;;;;24.73;16.37;;;0.70;99.90;;;;;;5057624;28;20541;-78
2021/12/23 08:31:43;;;;;;;25.77;16.13;;;0.80;99.90;;;;;;5075229;28;20197;-77
2021/12/23 08:34:09;;;;;;;24.40;15.80;;;0.80;99.90;;;;;;5056436;28;20193;-77
2021/12/23 08:36:35;;;;;;;26.90;17.87;;;0.90;99.90;;;;;;5074835;28;20198;-78
2021/12/23 08:39:01;;;;;;;25.10;16.23;;;1.00;99.90;;;;;;5057462;28;20185;-77
2021/12/23 08:41:26;;;;;;;22.57;16.17;;;1.00;99.90;;;;;;5076810;28;20183;-78
2021/12/23 08:43:52;;;;;;;25.97;16.23;;;1.00;99.90;;;;;;5076289;28;20659;-78
2021/12/23 08:46:18;;;;;;;25.70;16.57;;;1.00;99.90;;;;;;5078095;28;20706;-78
2021/12/23 08:48:44;;;;;;;24.83;16.07;;;1.00;99.90;;;;;;5078404;28;20177;-78
2021/12/23 08:51:09;;;;;;;24.60;16.37;;;1.10;99.90;;;;;;5079251;28;20214;-78
2021/12/23 08:53:35;;;;;;;28.03;17.23;;;1.10;99.90;;;;;;5076505;28;20190;-77
2021/12/23 08:56:00;;;;;;;24.43;15.70;;;1.10;99.90;;;;;;5074416;28;20259;-78
2021/12/23 08:58:26;;;;;;;26.27;17.20;;;1.10;99.90;;;;;;5056722;28;20194;-78
2021/12/23 09:00:51;;;;;;;26.87;16.57;;;1.20;99.90;;;;;;5074567;28;20189;-78
2021/12/23 09:03:17;;;;;;;26.27;16.63;;;1.10;99.90;;;;;;5074860;28;20206;-78
2021/12/23 09:05:42;;;;;;;25.30;15.70;;;1.10;99.90;;;;;;5055884;28;20230;-77
2021/12/23 09:08:09;;;;;;;23.43;14.93;;;1.10;99.90;;;;;;5074173;28;20186;-78
2021/12/23 09:10:35;;;;;;;24.93;15.10;;;1.20;99.90;;;;;;5074293;28;20203;-78
2021/12/23 09:13:02;;;;;;;22.67;15.60;;;1.20;99.90;;;;;;5073551;28;20205;-77
2021/12/23 09:15:28;;;;;;;25.87;16.80;;;1.20;99.90;;;;;;5073104;28;20205;-77
2021/12/23 09:17:53;;;;;;;23.37;15.23;;;1.20;99.90;;;;;;5073355;28;20179;-77
2021/12/23 09:20:21;;;;;;;23.10;14.57;;;1.20;99.90;;;;;;5073612;28;20205;-77
2021/12/23 09:22:47;;;;;;;23.20;14.83;;;1.30;99.90;;;;;;5073218;28;20186;-77
2021/12/23 09:25:25;;;;;;;23.00;15.50;;;1.30;99.90;;;;;;5073378;28;20195;-78
2021/12/23 09:28:06;;;;;;;25.50;16.13;;;1.30;99.90;;;;;;5073299;28;20166;-77
2021/12/23 09:33:16;;;;;;;23.63;15.73;;;1.40;99.90;;;;;;5073816;28;20162;-77
2021/12/23 09:35:42;;;;;;;22.60;14.63;;;1.40;99.90;;;;;;5073340;28;20203;-77
2021/12/23 09:38:08;;;;;;;23.87;14.67;;;1.40;99.90;;;;;;5073086;28;20183;-77
2021/12/23 09:40:35;;;;;;;26.30;15.67;;;1.50;99.90;;;;;;5072931;28;20552;-78
2021/12/23 09:43:04;;;;;;;25.80;16.20;;;1.50;99.90;;;;;;5073379;28;20186;-76
2021/12/23 09:45:30;;;;;;;21.97;15.63;;;1.60;99.90;;;;;;5072540;28;20217;-76
2021/12/23 09:47:58;;;;;;;22.23;15.00;;;1.60;99.90;;;;;;5072591;28;20236;-76
2021/12/23 09:50:27;;;;;;;22.53;14.70;;;1.60;99.90;;;;;;5075456;28;20202;-76
2021/12/23 09:52:54;;;;;;;28.90;15.77;;;1.60;99.90;;;;;;5076228;28;20262;-76
2021/12/23 09:55:25;;;;;;;22.77;14.57;;;1.60;99.90;;;;;;5076155;28;20643;-76
2021/12/23 09:57:54;;;;;;;23.23;15.17;;;1.70;99.90;;;;;;5058279;28;20183;-76
2021/12/23 10:00:23;;;;;;;24.00;14.73;;;1.70;99.90;;;;;;5076367;28;20187;-76
2021/12/23 10:02:50;;;;;;;29.03;16.20;;;1.70;99.90;;;;;;5076282;28;20209;-76
2021/12/23 10:05:19;;;;;;;22.40;14.97;;;1.80;99.90;;;;;;5076034;28;20297;-76
2021/12/23 10:07:47;;;;;;;24.03;15.33;;;1.80;99.90;;;;;;5075991;28;20538;-76
2021/12/23 10:10:21;;;;;;;24.87;15.17;;;1.90;99.90;;;;;;5076363;28;20216;-76
2021/12/23 10:26:49;;;;;;;23.03;13.73;;;1.90;99.90;;;;;;5075892;28;20245;-76
2021/12/23 10:38:10;;;;;;;23.43;15.30;;;2.20;99.90;;;;;;5075581;28;20174;-76
2021/12/23 10:40:38;;;;;;;22.23;14.50;;;2.30;99.90;;;;;;5057620;28;20178;-76
2021/12/23 10:43:04;;;;;;;21.83;14.40;;;2.30;99.90;;;;;;5075398;28;20202;-76
2021/12/23 10:45:50;;;;;;;23.20;14.67;;;2.30;99.90;;;;;;5075197;28;20222;-76
2021/12/23 10:48:17;;;;;;;22.00;15.40;;;2.30;99.90;;;;;;5075592;28;20159;-76
2021/12/23 10:50:52;;;;;;;19.50;13.90;;;2.40;99.90;;;;;;5075078;28;20631;-76
2021/12/23 10:59:20;;;;;;;23.30;14.57;;;2.40;99.90;;;;;;5075407;28;20167;-77
2021/12/23 11:02:18;;;;;;;24.70;15.10;;;2.50;99.90;;;;;;5074786;28;20700;-77
2021/12/23 11:04:57;;;;;;;20.87;14.00;;;2.50;99.90;;;;;;5075199;28;20242;-76
2021/12/23 11:07:26;;;;;;;23.43;14.07;;;2.50;99.90;;;;;;5075905;28;20167;-77
2021/12/23 11:10:01;;;;;;;20.13;14.33;;;2.60;99.90;;;;;;5075202;28;20244;-77
2021/12/23 11:27:26;;;;;;;22.10;14.83;;;2.60;99.90;;;;;;5075300;28;20163;-77
2021/12/23 11:27:52;;;;;;;27.20;14.50;;;2.70;99.90;;;;;;5075148;28;20178;-76
2021/12/23 11:39:06;;;;;;;23.90;14.73;;;2.90;99.90;;;;;;5074856;28;20220;-77
2021/12/23 11:41:35;;;;;;;23.87;14.70;;;2.90;99.90;;;;;;5075058;28;20241;-76
2021/12/23 11:44:05;;;;;;;24.70;15.07;;;2.90;99.90;;;;;;5075373;28;20171;-78
2021/12/23 11:46:40;;;;;;;22.83;14.73;;;3.00;99.90;;;;;;5075042;28;20270;-77
2021/12/23 11:49:10;;;;;;;18.77;12.80;;;3.00;99.90;;;;;;5075157;28;20178;-78
2021/12/23 11:54:07;;;;;;;23.87;14.97;;;3.00;99.90;;;;;;5075452;28;20190;-77
2021/12/23 11:56:38;;;;;;;20.87;14.13;;;3.10;99.90;;;;;;5074445;28;20233;-77
2021/12/23 11:59:05;;;;;;;22.37;15.00;;;3.00;99.90;;;;;;5074701;28;20172;-77
2021/12/23 12:01:44;;;;;;;23.60;14.90;;;3.10;99.90;;;;;;5075013;28;20292;-77
2021/12/23 12:04:20;;;;;;;20.43;13.67;;;3.10;99.90;;;;;;5074818;28;20171;-77
2021/12/23 12:06:47;;;;;;;20.73;13.50;;;3.10;99.90;;;;;;5074390;28;20222;-74
2021/12/23 12:09:19;;;;;;;22.57;15.13;;;3.10;99.90;;;;;;5074601;28;20587;-75
2021/12/23 12:12:03;;;;;;;21.90;13.60;;;3.10;99.90;;;;;;5073615;28;20188;-75
2021/12/23 12:14:32;;;;;;;23.93;14.77;;;3.10;99.90;;;;;;5074539;28;20250;-74
2021/12/23 12:17:27;;;;;;;25.83;14.33;;;3.10;99.90;;;;;;5074276;28;20186;-74
2021/12/23 12:20:14;;;;;;;21.43;14.13;;;3.20;99.90;;;;;;5073880;28;20718;-74
2021/12/23 12:23:05;;;;;;;21.90;14.27;;;3.20;99.90;;;;;;5074112;28;20175;-75
2021/12/23 12:25:30;;;;;;;22.67;14.23;;;3.30;99.90;;;;;;5073688;28;20722;-75
2021/12/23 12:27:56;;;;;;;24.40;15.83;;;3.30;99.90;;;;;;5074349;28;20178;-75
2021/12/23 12:30:45;;;;;;;21.07;14.07;;;3.30;99.90;;;;;;5074689;28;20229;-75
2021/12/23 12:33:23;;;;;;;27.70;14.97;;;3.30;99.90;;;;;;5074155;28;20604;-75
2021/12/23 12:35:51;;;;;;;23.53;13.60;;;3.30;99.90;;;;;;5074389;28;20734;-74
2021/12/23 12:38:22;;;;;;;22.53;14.20;;;3.30;99.90;;;;;;5074333;28;20205;-75
2021/12/23 12:41:07;;;;;;;20.07;13.87;;;3.40;99.90;;;;;;5074754;28;20175;-76
2021/12/23 12:43:41;;;;;;;21.13;14.63;;;3.40;99.90;;;;;;5075018;28;20167;-77
2021/12/23 12:46:15;;;;;;;24.10;14.13;;;3.40;99.90;;;;;;5074601;28;20217;-75
2021/12/23 12:48:56;;;;;;;23.67;14.13;;;3.40;99.90;;;;;;5074175;28;20227;-75
2021/12/23 12:51:28;;;;;;;21.43;14.63;;;3.40;99.90;;;;;;5073590;28;20260;-75
2021/12/23 12:54:02;;;;;;;21.30;14.27;;;3.50;99.90;;;;;;5073715;28;20191;-75
2021/12/23 12:56:30;;;;;;;22.97;14.47;;;3.50;99.90;;;;;;5073178;28;20704;-75
2021/12/23 12:58:59;;;;;;;23.47;14.10;;;3.50;99.90;;;;;;5073201;28;20228;-75
2021/12/23 13:01:33;;;;;;;22.67;14.70;;;3.50;99.90;;;;;;5073923;28;20179;-75
2021/12/23 13:04:00;;;;;;;21.53;13.87;;;3.50;99.90;;;;;;5074045;28;20644;-75
2021/12/23 13:06:41;;;;;;;24.80;15.67;;;3.50;99.90;;;;;;5074486;28;20222;-75
2021/12/23 13:09:15;;;;;;;20.93;13.43;;;3.60;99.90;;;;;;5074680;28;20683;-75
2021/12/23 13:11:44;;;;;;;21.50;13.47;;;3.60;99.90;;;;;;5074835;28;20238;-75
2021/12/23 13:14:21;;;;;;;19.93;13.37;;;3.60;99.90;;;;;;5074868;28;20273;-75
2021/12/23 13:16:57;;;;;;;24.57;14.80;;;3.60;99.90;;;;;;5073272;28;20569;-77
2021/12/23 13:19:33;;;;;;;21.47;14.37;;;3.70;99.90;;;;;;5074096;28;20641;-79
2021/12/23 13:21:59;;;;;;;21.83;13.73;;;3.70;99.90;;;;;;5073936;28;20197;-77
2021/12/23 13:24:28;;;;;;;21.53;13.50;;;3.70;99.90;;;;;;5076897;28;20625;-77
2021/12/23 13:26:56;;;;;;;24.03;14.40;;;3.70;99.90;;;;;;5077524;28;20303;-78
2021/12/23 13:29:27;;;;;;;22.30;14.27;;;3.80;99.90;;;;;;5076531;28;20317;-77
2021/12/23 13:31:54;;;;;;;24.27;14.27;;;3.80;99.90;;;;;;5076676;28;20264;-78
2021/12/23 13:34:23;;;;;;;22.60;14.43;;;3.80;99.90;;;;;;5077225;28;20182;-78
2021/12/23 13:36:53;;;;;;;20.83;14.13;;;3.80;99.90;;;;;;5076813;28;20568;-77
2021/12/23 13:39:24;;;;;;;22.63;14.53;;;3.80;99.90;;;;;;5075283;28;20190;-77